Time;durP1;ratioP1;P1;durP2;ratioP2;P2;SDS_P1;SDS_P2;PMS_P1;PMS_P2;Temp;Humidity;BMP_temperature;BMP_pressure;BME280_temperature;BME280_humidity;BME280_pressure;Samples;Min_cycle;Max_cycle;Signal;HPM_P1;HPM_P2
2021/05/27 00:00:33;;;;;;;2.63;1.05;;;23.00;47.80;;;;;;5025102;28;20147;-62
2021/05/27 00:03:00;;;;;;;2.47;1.00;;;23.00;47.80;;;;;;5023209;28;20030;-61
2021/05/27 00:05:27;;;;;;;1.92;1.00;;;22.90;47.70;;;;;;5023540;28;20482;-61
2021/05/27 00:07:53;;;;;;;1.35;0.90;;;22.90;47.70;;;;;;5023664;28;20180;-62
2021/05/27 00:10:21;;;;;;;1.80;0.95;;;22.90;47.70;;;;;;5025069;28;20025;-62
2021/05/27 00:12:47;;;;;;;1.67;0.95;;;22.90;47.70;;;;;;5027944;28;20337;-63
2021/05/27 00:15:14;;;;;;;2.50;1.10;;;22.90;47.70;;;;;;5029245;28;20163;-63
2021/05/27 00:17:40;;;;;;;1.50;0.90;;;22.90;47.70;;;;;;5021703;28;20090;-62
2021/05/27 00:20:07;;;;;;;1.85;0.93;;;22.90;47.70;;;;;;5024526;28;20076;-63
2021/05/27 00:22:33;;;;;;;2.22;1.08;;;22.90;47.70;;;;;;5026029;28;20033;-61
2021/05/27 00:24:59;;;;;;;2.08;1.17;;;22.90;47.70;;;;;;5022289;28;20041;-62
2021/05/27 00:27:25;;;;;;;2.70;1.10;;;22.80;47.90;;;;;;5019689;28;20033;-61
2021/05/27 00:29:50;;;;;;;2.25;0.88;;;22.80;47.70;;;;;;5028656;28;20171;-62
2021/05/27 00:32:16;;;;;;;2.25;1.08;;;22.80;47.70;;;;;;5023288;28;20170;-61
2021/05/27 00:34:42;;;;;;;2.38;0.82;;;22.80;47.70;;;;;;5017039;28;20030;-63
2021/05/27 00:37:07;;;;;;;1.70;1.00;;;22.80;47.70;;;;;;5026646;28;20831;-62
2021/05/27 00:39:33;;;;;;;1.30;0.90;;;22.80;47.70;;;;;;5017252;28;20075;-61
2021/05/27 00:41:59;;;;;;;3.20;1.10;;;22.80;47.70;;;;;;5027613;28;20029;-61
2021/05/27 00:44:30;;;;;;;1.67;1.00;;;22.80;47.70;;;;;;5026238;28;20492;-62
2021/05/27 00:46:59;;;;;;;2.05;0.90;;;22.80;47.70;;;;;;5028337;28;20038;-61
2021/05/27 00:49:25;;;;;;;1.15;0.80;;;22.80;47.70;;;;;;5027357;28;20374;-62
2021/05/27 00:51:51;;;;;;;1.50;0.82;;;22.70;47.70;;;;;;5027995;28;20041;-62
2021/05/27 00:54:18;;;;;;;2.45;0.90;;;22.70;47.70;;;;;;5027907;28;20025;-61
2021/05/27 00:56:45;;;;;;;2.15;1.23;;;22.70;47.70;;;;;;5027509;28;20034;-61
2021/05/27 00:59:11;;;;;;;1.65;1.00;;;22.70;47.70;;;;;;5022833;28;20050;-63
2021/05/27 01:01:37;;;;;;;3.05;0.93;;;22.70;47.70;;;;;;5026244;28;20033;-62
2021/05/27 01:04:03;;;;;;;2.05;1.02;;;22.70;47.70;;;;;;5027781;28;20070;-62
2021/05/27 01:06:29;;;;;;;1.92;1.05;;;22.70;47.70;;;;;;5016099;28;20029;-62
2021/05/27 01:08:55;;;;;;;1.67;0.98;;;22.70;47.70;;;;;;5028208;28;20041;-62
2021/05/27 01:11:22;;;;;;;1.50;0.80;;;22.70;47.70;;;;;;5024695;28;20039;-63
2021/05/27 01:13:48;;;;;;;1.77;0.90;;;22.70;47.70;;;;;;5008711;28;20025;-62
2021/05/27 01:16:16;;;;;;;1.90;0.90;;;22.70;47.70;;;;;;5019806;28;20368;-62
2021/05/27 01:18:41;;;;;;;1.38;0.90;;;22.60;47.60;;;;;;5028117;28;20080;-61
2021/05/27 01:21:07;;;;;;;1.42;1.00;;;22.60;47.60;;;;;;5027189;28;20374;-61
2021/05/27 01:23:33;;;;;;;2.28;1.00;;;22.60;47.60;;;;;;5025966;28;20034;-62
2021/05/27 01:26:00;;;;;;;1.80;0.95;;;22.60;47.60;;;;;;5023520;28;20112;-61
2021/05/27 01:28:31;;;;;;;1.67;0.80;;;22.60;47.60;;;;;;5022766;28;20057;-61
2021/05/27 01:30:58;;;;;;;2.35;1.00;;;22.60;47.70;;;;;;5020721;28;20132;-62
2021/05/27 01:33:24;;;;;;;2.38;0.93;;;22.60;47.60;;;;;;5025512;28;20057;-62
2021/05/27 01:35:49;;;;;;;2.13;0.98;;;22.60;47.70;;;;;;5024062;28;20432;-62
2021/05/27 01:38:17;;;;;;;1.73;0.82;;;22.60;47.70;;;;;;5008667;28;20104;-62
2021/05/27 01:40:43;;;;;;;1.50;0.90;;;22.60;47.70;;;;;;5018987;28;20033;-62
2021/05/27 01:43:10;;;;;;;1.67;1.00;;;22.60;47.70;;;;;;5025956;28;20403;-62
2021/05/27 01:45:36;;;;;;;1.20;0.70;;;22.50;47.60;;;;;;5026983;28;20052;-62
2021/05/27 01:48:03;;;;;;;1.98;0.98;;;22.50;47.60;;;;;;5027568;28;20126;-61
2021/05/27 01:50:29;;;;;;;1.27;0.80;;;22.50;47.70;;;;;;5019106;28;20164;-62
2021/05/27 01:52:58;;;;;;;1.27;0.82;;;22.50;47.70;;;;;;5021562;28;20053;-61
2021/05/27 01:55:23;;;;;;;1.70;1.00;;;22.50;47.60;;;;;;5021210;28;20168;-61
2021/05/27 01:57:49;;;;;;;1.58;0.70;;;22.50;48.20;;;;;;5025325;28;20119;-61
2021/05/27 02:00:15;;;;;;;1.65;0.85;;;22.50;47.60;;;;;;5023866;28;20013;-61
2021/05/27 02:02:41;;;;;;;2.08;1.02;;;22.40;47.60;;;;;;5020450;28;20014;-61
2021/05/27 02:05:07;;;;;;;1.38;0.77;;;22.40;47.60;;;;;;5025917;28;20313;-62
2021/05/27 02:07:32;;;;;;;1.85;0.88;;;22.50;47.60;;;;;;5026836;28;20082;-62
2021/05/27 02:09:58;;;;;;;2.20;0.88;;;22.40;48.10;;;;;;5022502;28;20033;-62
2021/05/27 02:12:23;;;;;;;1.10;0.70;;;22.40;47.60;;;;;;5015775;28;20045;-61
2021/05/27 02:14:49;;;;;;;1.88;0.95;;;22.40;47.60;;;;;;5024289;28;20025;-61
2021/05/27 02:17:15;;;;;;;1.60;0.82;;;22.40;47.60;;;;;;5021300;28;20478;-61
2021/05/27 02:19:41;;;;;;;1.23;0.82;;;22.40;47.60;;;;;;5019148;28;20091;-62
2021/05/27 02:22:07;;;;;;;1.50;0.73;;;22.40;47.60;;;;;;5025690;28;20017;-61
2021/05/27 02:24:32;;;;;;;1.60;0.82;;;22.40;47.60;;;;;;5025620;28;20029;-62
2021/05/27 02:26:58;;;;;;;1.58;0.70;;;22.40;47.60;;;;;;5014174;28;20043;-61
2021/05/27 02:29:24;;;;;;;1.30;0.73;;;22.40;47.60;;;;;;5010805;28;20033;-62
2021/05/27 02:31:50;;;;;;;2.15;0.80;;;22.40;47.60;;;;;;5023104;28;20120;-61
2021/05/27 02:34:15;;;;;;;1.40;0.80;;;22.30;47.60;;;;;;5025183;28;20031;-62
2021/05/27 02:36:41;;;;;;;1.27;0.75;;;22.30;47.60;;;;;;5025870;28;20136;-62
2021/05/27 02:39:07;;;;;;;1.10;0.70;;;22.40;47.60;;;;;;5026215;28;20025;-62
2021/05/27 02:41:33;;;;;;;1.77;0.85;;;22.30;47.60;;;;;;5023426;28;20037;-62
2021/05/27 02:43:58;;;;;;;1.50;0.70;;;22.30;47.60;;;;;;5025263;28;20357;-62
2021/05/27 02:46:24;;;;;;;1.40;0.77;;;22.30;47.60;;;;;;5025152;28;20041;-61
2021/05/27 02:48:50;;;;;;;1.50;0.88;;;22.30;47.60;;;;;;5025410;28;20034;-61
2021/05/27 02:51:16;;;;;;;1.10;0.60;;;22.30;47.60;;;;;;5023428;28;20060;-62
2021/05/27 02:53:41;;;;;;;0.77;0.70;;;22.30;47.60;;;;;;5026046;28;20045;-61
2021/05/27 02:56:07;;;;;;;1.45;0.70;;;22.30;47.60;;;;;;5024311;28;20022;-62
2021/05/27 02:58:33;;;;;;;1.67;0.80;;;22.30;47.60;;;;;;5026069;28;20049;-62
2021/05/27 03:00:58;;;;;;;0.90;0.70;;;22.30;47.60;;;;;;5021265;28;20050;-62
2021/05/27 03:03:24;;;;;;;1.15;0.80;;;22.30;48.10;;;;;;5024971;28;20049;-60
2021/05/27 03:05:50;;;;;;;1.85;0.80;;;22.30;47.60;;;;;;5023829;28;20200;-61
2021/05/27 03:08:16;;;;;;;1.60;0.88;;;22.20;47.60;;;;;;5023962;28;20467;-62
2021/05/27 03:10:42;;;;;;;1.52;0.80;;;22.20;47.50;;;;;;5012101;28;20029;-61
2021/05/27 03:13:08;;;;;;;2.15;0.80;;;22.20;47.60;;;;;;5025092;28;20736;-61
2021/05/27 03:15:35;;;;;;;1.35;0.80;;;22.20;47.60;;;;;;5026049;28;20083;-61
2021/05/27 03:18:04;;;;;;;1.55;0.90;;;22.20;47.60;;;;;;5023579;28;20037;-62
2021/05/27 03:20:30;;;;;;;1.30;0.80;;;22.20;47.60;;;;;;5008545;28;20555;-61
2021/05/27 03:22:56;;;;;;;1.50;0.80;;;22.20;47.60;;;;;;5026648;28;20129;-62
2021/05/27 03:25:22;;;;;;;1.40;0.80;;;22.20;47.60;;;;;;5028589;28;20049;-60
2021/05/27 03:27:48;;;;;;;1.40;0.80;;;22.20;47.50;;;;;;5029763;28;20030;-61
2021/05/27 03:30:15;;;;;;;1.40;0.80;;;22.20;47.50;;;;;;5028171;28;20365;-61
2021/05/27 03:32:41;;;;;;;0.95;0.80;;;22.20;47.60;;;;;;5026770;28;20535;-61
2021/05/27 03:35:10;;;;;;;1.05;0.60;;;22.20;47.60;;;;;;5029561;28;20109;-61
2021/05/27 03:37:36;;;;;;;;;;;22.20;47.60;;;;;;5028761;28;20033;-61
2021/05/27 03:40:11;;;;;;;1.10;0.70;;;22.20;47.60;;;;;;5029541;28;19913;-61
2021/05/27 03:42:37;;;;;;;1.20;0.80;;;22.20;47.50;;;;;;5028179;28;20677;-61
2021/05/27 03:45:11;;;;;;;1.13;0.70;;;22.20;47.60;;;;;;5020308;28;20510;-61
2021/05/27 03:47:38;;;;;;;1.00;0.70;;;22.20;47.60;;;;;;5029778;28;20033;-61
2021/05/27 03:50:06;;;;;;;0.88;0.60;;;22.10;48.00;;;;;;5029238;28;20040;-61
2021/05/27 03:52:32;;;;;;;1.65;0.90;;;22.10;47.50;;;;;;5027342;28;20026;-61
2021/05/27 03:55:01;;;;;;;1.52;0.70;;;22.10;47.50;;;;;;5029642;28;20029;-61
2021/05/27 03:57:27;;;;;;;1.10;0.77;;;22.10;47.50;;;;;;5028467;28;20468;-61
2021/05/27 04:02:41;;;;;;;1.20;0.70;;;22.10;47.50;;;;;;5025671;28;20071;-61
2021/05/27 04:07:52;;;;;;;1.15;0.75;;;22.10;47.50;;;;;;5029825;28;20098;-61
2021/05/27 04:10:17;;;;;;;0.68;0.60;;;22.10;47.50;;;;;;5026994;28;20043;-60
2021/05/27 04:12:46;;;;;;;1.00;0.70;;;22.10;47.60;;;;;;5018842;28;20032;-61
2021/05/27 04:15:23;;;;;;;1.00;0.65;;;22.10;47.50;;;;;;5026932;28;20456;-60
2021/05/27 04:18:13;;;;;;;0.88;0.70;;;22.10;47.70;;;;;;5023933;28;20045;-60
2021/05/27 04:20:41;;;;;;;0.95;0.70;;;22.10;47.50;;;;;;5026518;28;20139;-60
2021/05/27 04:23:36;;;;;;;0.90;0.60;;;22.10;47.50;;;;;;5027257;28;20029;-61
2021/05/27 04:26:03;;;;;;;1.00;0.70;;;22.00;47.50;;;;;;5016634;28;20056;-61
2021/05/27 04:28:30;;;;;;;1.25;0.70;;;22.10;47.50;;;;;;5022077;28;20447;-61
2021/05/27 04:31:09;;;;;;;0.90;0.73;;;22.10;47.50;;;;;;5027870;28;20034;-61
2021/05/27 04:33:39;;;;;;;0.60;0.60;;;22.00;47.50;;;;;;5024406;28;20095;-61
2021/05/27 04:36:06;;;;;;;1.13;0.70;;;22.00;47.50;;;;;;5027750;28;20056;-61
2021/05/27 04:38:31;;;;;;;1.08;0.60;;;22.00;47.50;;;;;;5029675;28;20139;-61
2021/05/27 04:40:57;;;;;;;1.33;0.85;;;22.00;47.50;;;;;;5026930;28;20113;-61
2021/05/27 04:43:23;;;;;;;1.02;0.70;;;22.00;47.50;;;;;;5027355;28;20072;-61
2021/05/27 04:45:49;;;;;;;0.68;0.50;;;22.00;47.40;;;;;;5028783;28;20049;-61
2021/05/27 04:48:15;;;;;;;1.30;0.80;;;22.00;47.50;;;;;;5026488;28;20030;-61
2021/05/27 04:50:52;;;;;;;0.70;0.60;;;22.00;47.50;;;;;;5023721;28;20470;-60
2021/05/27 04:53:18;;;;;;;1.10;0.70;;;22.00;47.50;;;;;;5016479;28;20495;-60
2021/05/27 04:55:45;;;;;;;0.95;0.70;;;22.00;47.50;;;;;;5015767;28;20031;-61
2021/05/27 04:58:11;;;;;;;0.70;0.60;;;22.00;47.50;;;;;;5024535;28;20120;-63
2021/05/27 05:00:37;;;;;;;0.98;0.70;;;22.00;47.50;;;;;;5021477;28;20041;-61
2021/05/27 05:03:04;;;;;;;0.93;0.68;;;22.00;47.50;;;;;;5022623;28;20621;-60
2021/05/27 05:05:31;;;;;;;1.35;0.90;;;22.00;47.50;;;;;;5023171;28;20034;-61
2021/05/27 05:07:57;;;;;;;1.05;0.80;;;22.00;47.50;;;;;;5021877;28;20029;-60
2021/05/27 05:10:25;;;;;;;0.95;0.63;;;22.00;47.50;;;;;;5018874;28;20107;-60
2021/05/27 05:12:52;;;;;;;0.95;0.77;;;21.90;47.40;;;;;;5024487;28;20044;-61
2021/05/27 05:15:25;;;;;;;1.90;0.70;;;21.90;47.40;;;;;;5027489;28;20029;-60
2021/05/27 05:17:53;;;;;;;0.95;0.70;;;22.00;47.50;;;;;;5019435;28;20349;-60
2021/05/27 05:20:20;;;;;;;0.60;0.60;;;21.90;47.40;;;;;;5023699;28;20146;-59
2021/05/27 05:22:46;;;;;;;1.33;0.60;;;21.90;47.40;;;;;;5027584;28;20025;-61
2021/05/27 05:25:13;;;;;;;0.93;0.60;;;21.90;47.40;;;;;;5024399;28;20044;-60
2021/05/27 05:27:39;;;;;;;0.77;0.65;;;21.90;47.40;;;;;;5027188;28;20030;-60
2021/05/27 05:30:07;;;;;;;0.90;0.60;;;21.90;47.40;;;;;;5025640;28;20060;-61
2021/05/27 05:32:33;;;;;;;0.90;0.70;;;21.90;47.40;;;;;;5023378;28;20041;-61
2021/05/27 05:35:02;;;;;;;1.05;0.80;;;21.90;47.40;;;;;;5025379;28;20029;-61
2021/05/27 05:37:28;;;;;;;1.10;0.73;;;21.90;47.40;;;;;;5025221;28;20025;-62
2021/05/27 05:39:54;;;;;;;1.20;0.70;;;21.90;47.40;;;;;;5024336;28;20382;-61
2021/05/27 05:42:20;;;;;;;1.08;0.70;;;21.90;47.40;;;;;;5025159;28;20033;-61
2021/05/27 05:44:46;;;;;;;1.00;0.60;;;21.90;47.40;;;;;;5025090;28;20051;-61
2021/05/27 05:47:11;;;;;;;1.05;0.70;;;21.90;47.40;;;;;;5022083;28;20057;-61
2021/05/27 05:49:37;;;;;;;0.60;0.50;;;21.90;47.40;;;;;;5018750;28;20037;-61
2021/05/27 05:52:03;;;;;;;0.80;0.60;;;21.90;47.40;;;;;;5024854;28;20128;-61
2021/05/27 05:54:29;;;;;;;0.70;0.60;;;21.90;47.40;;;;;;5024526;28;20026;-61
2021/05/27 05:56:55;;;;;;;0.80;0.60;;;21.80;47.40;;;;;;5024819;28;20028;-61
2021/05/27 05:59:20;;;;;;;0.95;0.65;;;21.90;47.40;;;;;;5024941;28;20037;-61
2021/05/27 06:01:46;;;;;;;0.95;0.63;;;21.90;47.40;;;;;;5023547;28;20135;-61
2021/05/27 06:04:12;;;;;;;0.95;0.60;;;21.80;47.40;;;;;;5023443;28;20034;-62
2021/05/27 06:06:37;;;;;;;1.02;0.60;;;21.80;47.30;;;;;;5021041;28;20025;-61
2021/05/27 06:09:04;;;;;;;0.70;0.60;;;21.80;47.30;;;;;;5026553;28;20087;-60
2021/05/27 06:11:29;;;;;;;0.82;0.65;;;21.80;47.30;;;;;;5021921;28;20092;-62
2021/05/27 06:13:56;;;;;;;0.57;0.57;;;21.80;47.30;;;;;;5024046;28;20384;-61
2021/05/27 06:16:21;;;;;;;0.75;0.60;;;21.80;47.30;;;;;;5016654;28;20030;-61
2021/05/27 06:18:47;;;;;;;0.90;0.60;;;21.80;47.40;;;;;;5019588;28;20044;-61
2021/05/27 06:21:13;;;;;;;0.85;0.57;;;21.80;47.40;;;;;;5024677;28;20456;-60
2021/05/27 06:23:39;;;;;;;0.95;0.60;;;21.80;47.30;;;;;;5026419;28;20032;-60
2021/05/27 06:26:05;;;;;;;1.13;0.60;;;21.80;47.30;;;;;;5024806;28;20121;-61
2021/05/27 06:28:30;;;;;;;0.77;0.60;;;21.80;47.30;;;;;;5028166;28;20033;-61
2021/05/27 06:30:56;;;;;;;0.68;0.50;;;21.80;47.30;;;;;;5024295;28;20179;-61
2021/05/27 06:33:23;;;;;;;1.30;0.80;;;21.80;47.30;;;;;;5026201;28;20483;-61
2021/05/27 06:35:48;;;;;;;0.75;0.60;;;21.70;47.30;;;;;;5024140;28;20088;-61
2021/05/27 06:38:14;;;;;;;1.33;0.90;;;21.80;47.30;;;;;;5027947;28;20034;-60
2021/05/27 06:40:41;;;;;;;0.82;0.60;;;21.70;47.30;;;;;;5026134;28;20018;-61
2021/05/27 06:43:07;;;;;;;1.20;0.65;;;21.70;47.30;;;;;;5024925;28;20068;-61
2021/05/27 06:45:33;;;;;;;2.05;0.70;;;21.70;47.30;;;;;;5025507;28;20048;-61
2021/05/27 06:47:59;;;;;;;0.73;0.63;;;21.70;47.30;;;;;;5026348;28;20060;-60
2021/05/27 06:50:35;;;;;;;0.70;0.60;;;21.70;47.30;;;;;;5025846;28;20152;-60
2021/05/27 06:53:03;;;;;;;1.73;0.60;;;21.70;47.30;;;;;;5027045;28;20041;-61
2021/05/27 06:55:29;;;;;;;0.70;0.52;;;21.70;47.30;;;;;;5023764;28;20079;-61
2021/05/27 06:57:54;;;;;;;0.90;0.70;;;21.70;47.30;;;;;;5026739;28;20038;-61
2021/05/27 07:00:22;;;;;;;0.93;0.70;;;21.70;47.30;;;;;;5028176;28;20106;-61
2021/05/27 07:02:48;;;;;;;1.02;0.75;;;21.70;47.30;;;;;;5028150;28;20475;-62
2021/05/27 07:05:14;;;;;;;1.52;0.60;;;21.70;47.30;;;;;;5028619;28;20090;-61
2021/05/27 07:07:40;;;;;;;0.73;0.60;;;21.70;47.30;;;;;;5025771;28;20638;-62
2021/05/27 07:10:07;;;;;;;0.52;0.50;;;21.70;47.80;;;;;;5028134;28;20103;-61
2021/05/27 07:12:33;;;;;;;0.90;0.65;;;21.70;47.30;;;;;;5028961;28;20021;-61
2021/05/27 07:14:59;;;;;;;1.00;0.70;;;21.70;47.30;;;;;;5029713;28;20022;-60
2021/05/27 07:17:25;;;;;;;1.00;0.60;;;21.70;47.30;;;;;;5026988;28;20033;-60
2021/05/27 07:19:52;;;;;;;0.80;0.60;;;21.70;47.30;;;;;;5030980;28;20388;-62
2021/05/27 07:22:18;;;;;;;0.68;0.60;;;21.70;47.30;;;;;;5030587;28;20033;-61
2021/05/27 07:24:45;;;;;;;0.80;0.70;;;21.70;47.20;;;;;;5049673;28;20025;-61
2021/05/27 07:27:11;;;;;;;0.70;0.60;;;21.70;47.30;;;;;;5036213;28;20672;-61
2021/05/27 07:29:37;;;;;;;1.08;0.68;;;21.70;47.30;;;;;;5028158;28;20033;-62
2021/05/27 07:32:05;;;;;;;1.20;0.80;;;21.60;47.20;;;;;;5028410;28;20061;-61
2021/05/27 07:34:31;;;;;;;1.45;0.60;;;21.60;47.20;;;;;;5028256;28;20032;-62
2021/05/27 07:36:57;;;;;;;1.48;0.63;;;21.70;47.20;;;;;;5029223;28;20033;-61
2021/05/27 07:39:22;;;;;;;0.60;0.60;;;21.60;47.20;;;;;;5027475;28;20041;-61
2021/05/27 07:41:48;;;;;;;1.10;0.63;;;21.60;47.20;;;;;;5009849;28;20121;-62
2021/05/27 07:44:13;;;;;;;1.20;0.60;;;21.60;47.20;;;;;;5019613;28;20072;-61
2021/05/27 07:46:39;;;;;;;2.00;0.70;;;21.60;47.20;;;;;;5025131;28;20037;-62
2021/05/27 07:49:05;;;;;;;0.93;0.70;;;21.60;47.20;;;;;;5026251;28;20244;-61
2021/05/27 07:51:30;;;;;;;1.25;0.75;;;21.60;47.20;;;;;;5022173;28;20128;-60
2021/05/27 07:53:56;;;;;;;1.20;0.55;;;21.60;47.20;;;;;;5024770;28;20041;-61
2021/05/27 07:56:22;;;;;;;1.63;0.70;;;21.60;47.20;;;;;;5025825;28;20723;-60
2021/05/27 07:58:47;;;;;;;1.48;0.77;;;21.60;47.20;;;;;;5027103;28;20052;-61
2021/05/27 08:01:15;;;;;;;1.20;0.70;;;21.60;47.20;;;;;;5022556;28;20083;-60
2021/05/27 08:03:40;;;;;;;1.35;0.80;;;21.60;47.20;;;;;;5026117;28;20025;-60
2021/05/27 08:06:06;;;;;;;0.77;0.50;;;21.60;47.10;;;;;;5026419;28;20029;-60
2021/05/27 08:08:32;;;;;;;0.90;0.50;;;21.70;47.20;;;;;;5026029;28;20033;-61
2021/05/27 08:10:57;;;;;;;2.05;0.77;;;21.60;47.10;;;;;;5023477;28;20030;-60
2021/05/27 08:13:23;;;;;;;1.13;0.70;;;21.60;47.10;;;;;;5026497;28;20052;-61
2021/05/27 08:15:49;;;;;;;1.30;0.80;;;21.70;47.20;;;;;;5022968;28;20030;-59
2021/05/27 08:18:14;;;;;;;2.00;0.70;;;21.70;47.70;;;;;;5025957;28;20026;-59
2021/05/27 08:20:40;;;;;;;0.80;0.60;;;21.70;47.20;;;;;;5025839;28;20365;-60
2021/05/27 08:23:06;;;;;;;1.17;0.70;;;21.70;47.20;;;;;;5026264;28;20087;-60
2021/05/27 08:25:31;;;;;;;1.10;0.70;;;21.70;47.20;;;;;;5021162;28;20026;-60
2021/05/27 08:27:57;;;;;;;1.52;0.80;;;21.70;47.20;;;;;;5024401;28;20084;-61
2021/05/27 08:30:23;;;;;;;1.92;0.80;;;21.70;47.20;;;;;;5023084;28;20096;-60
2021/05/27 08:32:49;;;;;;;1.38;0.75;;;21.60;47.20;;;;;;5012561;28;20100;-59
2021/05/27 08:35:15;;;;;;;1.60;0.80;;;21.70;47.20;;;;;;5025560;28;20030;-60
2021/05/27 08:37:41;;;;;;;1.67;0.98;;;21.70;47.20;;;;;;5026133;28;20051;-60
2021/05/27 08:40:07;;;;;;;1.15;0.70;;;21.70;47.20;;;;;;5023492;28;20033;-60
2021/05/27 08:42:35;;;;;;;1.83;0.73;;;21.70;47.20;;;;;;5025929;28;20133;-60
2021/05/27 08:45:03;;;;;;;1.52;0.90;;;21.70;47.20;;;;;;5023306;28;20883;-60
2021/05/27 08:47:29;;;;;;;2.42;0.73;;;21.70;47.20;;;;;;5023339;28;20087;-61
2021/05/27 08:49:55;;;;;;;1.27;0.70;;;21.70;47.30;;;;;;5026571;28;20144;-59
2021/05/27 08:52:21;;;;;;;3.85;0.75;;;21.70;47.30;;;;;;5025032;28;20147;-60
2021/05/27 08:54:46;;;;;;;3.88;0.73;;;21.70;47.30;;;;;;5025870;28;20093;-60
2021/05/27 08:57:13;;;;;;;1.35;0.70;;;21.70;47.20;;;;;;5023119;28;20033;-59
2021/05/27 08:59:38;;;;;;;2.05;0.80;;;21.70;47.30;;;;;;5025338;28;20029;-58
2021/05/27 09:02:09;;;;;;;1.73;0.85;;;21.70;47.30;;;;;;5023175;28;20048;-59
2021/05/27 09:04:35;;;;;;;2.42;0.93;;;21.70;47.20;;;;;;5025105;28;20947;-60
2021/05/27 09:07:02;;;;;;;1.90;0.80;;;21.70;47.20;;;;;;5021975;28;20036;-60
2021/05/27 09:09:46;;;;;;;3.40;0.90;;;21.70;47.20;;;;;;5018599;28;20047;-60
2021/05/27 09:12:24;;;;;;;1.48;0.70;;;21.70;47.10;;;;;;5013736;28;20536;-60
2021/05/27 09:14:49;;;;;;;2.88;0.80;;;21.70;47.10;;;;;;5020076;28;20022;-60
2021/05/27 09:17:15;;;;;;;1.73;0.70;;;21.70;47.00;;;;;;5024994;28;20040;-60
2021/05/27 09:19:41;;;;;;;1.52;0.77;;;21.70;47.20;;;;;;5018786;28;20406;-60
2021/05/27 09:22:20;;;;;;;3.15;0.80;;;21.70;47.20;;;;;;5024481;28;20021;-61
2021/05/27 09:24:49;;;;;;;1.35;0.70;;;21.70;47.10;;;;;;5022066;28;20128;-62
2021/05/27 09:27:15;;;;;;;2.47;0.80;;;21.70;47.00;;;;;;5026695;28;20029;-61
2021/05/27 09:29:45;;;;;;;3.60;0.85;;;21.70;47.00;;;;;;5024261;28;20025;-62
2021/05/27 09:32:11;;;;;;;1.65;0.80;;;21.70;47.00;;;;;;5023910;28;20042;-61
2021/05/27 09:34:48;;;;;;;4.25;0.88;;;21.70;47.00;;;;;;5021510;28;20034;-62
2021/05/27 09:37:28;;;;;;;3.38;0.80;;;21.70;47.00;;;;;;5023106;28;20049;-62
2021/05/27 09:39:54;;;;;;;1.60;0.90;;;21.70;47.00;;;;;;5023520;28;20376;-60
2021/05/27 09:42:20;;;;;;;1.63;0.73;;;21.70;47.00;;;;;;5019885;28;20038;-61
2021/05/27 09:44:46;;;;;;;1.52;0.70;;;21.70;46.90;;;;;;5018236;28;20026;-61
2021/05/27 09:47:12;;;;;;;1.65;0.70;;;21.70;47.00;;;;;;5025356;28;20108;-62
2021/05/27 09:50:00;;;;;;;1.73;0.80;;;21.70;47.00;;;;;;5022302;28;20057;-64
2021/05/27 09:52:36;;;;;;;1.30;0.70;;;21.80;47.10;;;;;;5017165;28;20022;-63
2021/05/27 09:55:07;;;;;;;2.25;0.80;;;21.80;47.40;;;;;;5022376;28;20055;-62
2021/05/27 09:57:33;;;;;;;2.78;0.85;;;21.80;47.80;;;;;;5034985;28;20044;-63
2021/05/27 09:59:58;;;;;;;2.58;0.60;;;21.80;47.60;;;;;;5027589;28;20056;-63
2021/05/27 10:02:24;;;;;;;1.30;0.80;;;21.80;47.50;;;;;;5023087;28;20080;-63
2021/05/27 10:04:56;;;;;;;2.13;0.80;;;21.90;47.50;;;;;;5016309;28;20041;-63
2021/05/27 10:07:37;;;;;;;1.38;0.80;;;21.90;47.60;;;;;;5015015;28;20055;-64
2021/05/27 10:10:05;;;;;;;1.75;0.80;;;21.90;47.60;;;;;;5022768;28;20029;-61
2021/05/27 10:12:46;;;;;;;1.63;0.70;;;21.90;48.10;;;;;;5020370;28;20029;-61
2021/05/27 10:15:14;;;;;;;1.48;0.70;;;22.00;47.30;;;;;;5022877;28;20452;-63
2021/05/27 10:17:42;;;;;;;3.90;0.95;;;22.00;47.10;;;;;;5025417;28;20026;-61
2021/05/27 10:20:10;;;;;;;2.08;0.80;;;22.10;47.30;;;;;;5029399;28;20029;-60
2021/05/27 10:22:36;;;;;;;1.80;0.70;;;22.10;47.00;;;;;;5027891;28;20473;-63
2021/05/27 10:25:07;;;;;;;4.15;0.82;;;22.20;47.00;;;;;;5022451;28;20068;-63
2021/05/27 10:27:34;;;;;;;2.65;0.70;;;22.20;46.90;;;;;;5020880;28;20087;-63
2021/05/27 10:30:01;;;;;;;1.13;0.73;;;22.20;46.70;;;;;;5030524;28;20409;-61
2021/05/27 10:32:28;;;;;;;1.60;0.80;;;22.20;47.20;;;;;;5029119;28;20491;-63
2021/05/27 10:34:55;;;;;;;1.65;0.80;;;22.30;46.70;;;;;;5026169;28;20107;-61
2021/05/27 10:37:39;;;;;;;1.38;0.73;;;22.30;46.70;;;;;;5022624;28;20017;-62
2021/05/27 10:40:16;;;;;;;1.50;0.70;;;22.40;46.60;;;;;;5016650;28;20429;-60
2021/05/27 10:43:18;;;;;;;2.67;1.00;;;22.40;46.40;;;;;;5025587;28;20040;-61
2021/05/27 10:46:03;;;;;;;2.00;0.80;;;22.40;46.30;;;;;;5020595;28;20133;-61
2021/05/27 10:48:50;;;;;;;2.17;0.80;;;22.40;46.20;;;;;;5021607;28;20037;-63
2021/05/27 10:51:29;;;;;;;1.45;0.73;;;22.50;46.20;;;;;;5020352;28;20042;-63
2021/05/27 10:53:58;;;;;;;1.10;0.70;;;22.50;46.20;;;;;;5025617;28;20049;-61
2021/05/27 10:56:33;;;;;;;;;;;22.50;46.10;;;;;;5044023;28;20150;-60
2021/05/27 10:58:58;;;;;;;1.92;0.90;;;22.60;46.10;;;;;;5027790;28;19917;-63
2021/05/27 11:01:30;;;;;;;2.58;1.13;;;22.60;46.00;;;;;;5026877;28;20726;-62
2021/05/27 11:04:21;;;;;;;2.97;1.15;;;22.60;46.00;;;;;;5019936;28;20105;-61
2021/05/27 11:06:49;;;;;;;1.27;0.80;;;22.70;46.00;;;;;;5023476;28;20029;-61
2021/05/27 11:09:19;;;;;;;1.08;0.70;;;22.70;45.90;;;;;;5023485;28;20275;-61
2021/05/27 11:12:02;;;;;;;1.65;0.80;;;22.70;45.90;;;;;;5021670;28;20029;-62
2021/05/27 11:14:38;;;;;;;1.67;0.95;;;22.70;45.80;;;;;;5017268;28;20026;-60
2021/05/27 11:17:04;;;;;;;1.63;0.90;;;22.70;45.70;;;;;;5026575;28;20079;-62
2021/05/27 11:22:29;;;;;;;1.33;0.73;;;22.80;45.60;;;;;;5021805;28;20787;-61
2021/05/27 11:25:16;;;;;;;3.10;0.80;;;22.80;45.70;;;;;;5021863;28;20042;-62
2021/05/27 11:27:49;;;;;;;1.42;0.80;;;22.80;45.80;;;;;;5030731;28;20030;-61
2021/05/27 11:30:26;;;;;;;1.83;0.80;;;22.80;45.80;;;;;;5039183;28;20277;-62
2021/05/27 11:32:56;;;;;;;1.98;0.90;;;22.80;45.80;;;;;;5015833;28;20022;-60
2021/05/27 11:35:24;;;;;;;2.08;1.10;;;22.80;45.70;;;;;;5020706;28;20064;-62
2021/05/27 11:37:50;;;;;;;1.98;0.90;;;22.90;45.80;;;;;;5021121;28;20157;-61
2021/05/27 11:40:19;;;;;;;2.00;0.90;;;22.90;45.80;;;;;;5029553;28;20038;-62
2021/05/27 11:42:52;;;;;;;2.20;0.70;;;22.90;45.70;;;;;;5021596;28;20029;-61
2021/05/27 11:45:21;;;;;;;1.77;0.88;;;22.90;45.70;;;;;;5029608;28;20164;-61
2021/05/27 11:48:24;;;;;;;1.63;0.80;;;23.00;45.70;;;;;;5034534;28;20095;-62
2021/05/27 11:50:51;;;;;;;2.40;1.10;;;23.00;45.70;;;;;;5016324;28;20049;-62
2021/05/27 11:53:20;;;;;;;2.88;0.80;;;23.00;45.70;;;;;;5023961;28;20105;-63
2021/05/27 11:55:54;;;;;;;1.55;0.75;;;23.00;45.60;;;;;;5025996;28;20048;-60
2021/05/27 11:58:36;;;;;;;2.17;0.90;;;23.00;45.60;;;;;;5032008;28;20052;-62
2021/05/27 12:01:13;;;;;;;1.65;0.80;;;23.10;45.70;;;;;;5026223;28;20148;-61
2021/05/27 12:03:39;;;;;;;1.90;1.05;;;23.10;45.70;;;;;;5029515;28;20107;-62
2021/05/27 12:06:04;;;;;;;1.38;0.77;;;23.10;45.70;;;;;;5029347;28;20042;-63
2021/05/27 12:08:40;;;;;;;1.90;1.02;;;23.10;45.70;;;;;;5030633;28;20052;-61
2021/05/27 12:11:06;;;;;;;1.98;0.90;;;23.10;45.60;;;;;;5032058;28;20025;-62
2021/05/27 12:13:32;;;;;;;1.50;0.80;;;23.10;45.50;;;;;;5030668;28;20025;-64
2021/05/27 12:15:57;;;;;;;2.97;0.93;;;23.10;45.50;;;;;;5021168;28;20045;-56
2021/05/27 12:18:23;;;;;;;1.25;0.80;;;23.10;45.40;;;;;;5029522;28;20025;-56
2021/05/27 12:20:50;;;;;;;1.67;0.80;;;23.10;45.40;;;;;;5030021;28;20060;-58
2021/05/27 12:23:18;;;;;;;1.20;0.90;;;23.20;45.50;;;;;;5023889;28;20018;-58
2021/05/27 12:25:45;;;;;;;2.00;0.90;;;23.20;45.70;;;;;;5025531;28;20034;-55
2021/05/27 12:28:10;;;;;;;2.85;0.90;;;23.20;45.50;;;;;;5018393;28;20046;-59
2021/05/27 12:30:38;;;;;;;1.85;1.00;;;23.20;45.40;;;;;;5029964;28;21001;-59
2021/05/27 12:33:07;;;;;;;2.08;0.75;;;23.20;45.20;;;;;;5018874;28;20049;-58
2021/05/27 12:35:35;;;;;;;1.92;0.95;;;23.30;45.20;;;;;;5021506;28;20034;-50
2021/05/27 12:38:03;;;;;;;2.00;0.80;;;23.30;45.20;;;;;;5016751;28;20501;-55
2021/05/27 12:40:39;;;;;;;1.85;0.90;;;23.30;45.10;;;;;;5015809;28;20033;-54
2021/05/27 12:43:34;;;;;;;2.47;0.70;;;23.30;45.20;;;;;;5013439;28;20029;-56
2021/05/27 12:46:01;;;;;;;1.67;0.70;;;23.30;45.20;;;;;;5010602;28;20173;-53
2021/05/27 12:48:29;;;;;;;3.97;1.00;;;23.30;45.10;;;;;;5022721;28;20049;-57
2021/05/27 12:50:59;;;;;;;2.45;0.80;;;23.30;45.10;;;;;;5012201;28;20090;-52
2021/05/27 12:53:40;;;;;;;2.83;0.80;;;23.30;45.00;;;;;;5012762;28;20527;-54
2021/05/27 12:56:14;;;;;;;2.35;1.10;;;23.30;44.80;;;;;;5014856;28;20022;-56
2021/05/27 12:58:43;;;;;;;1.85;0.98;;;23.30;44.70;;;;;;5016382;28;20060;-54
2021/05/27 13:01:09;;;;;;;1.40;0.90;;;23.30;44.70;;;;;;5012281;28;20116;-55